Time;durP1;ratioP1;P1;durP2;ratioP2;P2;SDS_P1;SDS_P2;PMS_P1;PMS_P2;Temp;Humidity;BMP_temperature;BMP_pressure;BME280_temperature;BME280_humidity;BME280_pressure;Samples;Min_cycle;Max_cycle;Signal;HPM_P1;HPM_P2
2022/03/05 00:00:45;;;;;;;38.47;16.05;;;;;;;-2.22;86.58;100135.34;6346728;28;20092;-67
2022/03/05 00:03:45;;;;;;;34.53;16.33;;;;;;;-2.25;87.05;100138.75;6345456;28;20415;-67
2022/03/05 00:06:48;;;;;;;37.55;16.40;;;;;;;-2.30;87.82;100132.84;6346682;28;20056;-67
2022/03/05 00:09:48;;;;;;;35.63;16.42;;;;;;;-2.23;87.27;100138.75;6346498;28;20062;-67
2022/03/05 00:12:50;;;;;;;35.45;15.13;;;;;;;-2.23;88.02;100138.75;6345215;28;20472;-68
2022/03/05 00:15:51;;;;;;;32.15;15.38;;;;;;;-2.21;87.80;100128.53;6346270;28;20044;-68
2022/03/05 00:18:52;;;;;;;47.78;16.73;;;;;;;-2.12;87.21;100136.09;6346526;28;20040;-69
2022/03/05 00:21:54;;;;;;;33.30;13.95;;;;;;;-2.16;87.47;100127.63;6328400;28;20097;-68
2022/03/05 00:24:55;;;;;;;36.55;15.90;;;;;;;-2.25;88.55;100128.53;6329034;28;20508;-69
2022/03/05 00:27:55;;;;;;;28.92;14.63;;;;;;;-2.15;88.20;100131.03;6351646;28;20048;-69
2022/03/05 00:31:00;;;;;;;31.67;14.02;;;;;;;-1.95;86.82;100130.88;6351567;28;20096;-67
2022/03/05 00:34:00;;;;;;;32.45;14.77;;;;;;;-2.02;88.21;100124.94;6351711;28;20079;-68
2022/03/05 00:37:02;;;;;;;33.50;15.23;;;;;;;-2.00;87.92;100128.34;6316374;28;20375;-68
2022/03/05 00:40:04;;;;;;;28.30;13.15;;;;;;;-1.89;86.76;100121.44;6350095;28;20053;-68
2022/03/05 00:43:05;;;;;;;32.60;14.50;;;;;;;-1.91;87.04;100123.16;6351508;28;20449;-68
2022/03/05 00:46:05;;;;;;;38.53;16.13;;;;;;;-1.90;87.10;100117.16;6333211;28;20081;-68
2022/03/05 00:49:07;;;;;;;39.50;15.15;;;;;;;-1.88;86.72;100107.75;6350741;28;20055;-68
2022/03/05 00:52:08;;;;;;;35.58;15.20;;;;;;;-1.84;86.37;100113.72;6350942;28;20379;-69
2022/03/05 00:55:09;;;;;;;30.45;14.68;;;;;;;-1.81;86.67;100108.59;6332818;28;20040;-67
2022/03/05 00:58:10;;;;;;;35.85;14.70;;;;;;;-1.86;87.17;100105.19;6350931;28;20079;-71
2022/03/05 01:01:11;;;;;;;28.08;13.77;;;;;;;-1.83;87.14;100110.31;6349346;28;20035;-68
2022/03/05 01:04:12;;;;;;;29.80;14.10;;;;;;;-1.79;87.29;100118.78;6350863;28;20123;-67
2022/03/05 01:07:12;;;;;;;34.45;14.52;;;;;;;-1.77;87.27;100114.50;6349460;28;20122;-67
2022/03/05 01:10:13;;;;;;;31.75;14.15;;;;;;;-1.82;87.98;100117.94;6350582;28;20044;-71
2022/03/05 01:13:14;;;;;;;27.27;12.57;;;;;;;-1.63;86.49;100123.75;6350621;28;20075;-71
2022/03/05 01:16:16;;;;;;;35.63;15.60;;;;;;;-1.66;86.97;100123.75;6350582;28;20138;-69
2022/03/05 01:19:17;;;;;;;32.20;14.50;;;;;;;-1.62;86.78;100114.34;6332178;28;20047;-71
2022/03/05 01:22:18;;;;;;;28.42;13.32;;;;;;;-1.49;85.35;100113.34;6350206;28;20536;-69
2022/03/05 01:25:19;;;;;;;35.20;14.10;;;;;;;-1.39;84.77;100106.44;6348736;28;20043;-70
2022/03/05 01:28:20;;;;;;;32.28;14.63;;;;;;;-1.38;84.88;100112.38;6331759;28;20124;-69
2022/03/05 01:31:21;;;;;;;29.58;13.45;;;;;;;-1.39;85.62;100126.91;6349903;28;20051;-69
2022/03/05 01:34:22;;;;;;;34.72;14.82;;;;;;;-1.24;84.51;100113.91;6348641;28;20070;-69
2022/03/05 01:37:22;;;;;;;30.30;13.45;;;;;;;-1.25;84.90;100116.50;6347293;28;20487;-69
2022/03/05 01:40:24;;;;;;;33.35;14.48;;;;;;;-1.20;84.38;100114.72;6349451;28;20403;-70
2022/03/05 01:43:25;;;;;;;30.52;13.77;;;;;;;-1.24;85.21;100118.19;6348662;28;20379;-69
2022/03/05 01:46:34;;;;;;;33.72;14.93;;;;;;;-1.16;85.02;100116.41;6349834;28;20050;-66
2022/03/05 01:49:35;;;;;;;32.75;13.82;;;;;;;-1.04;83.96;100115.41;6349250;28;20131;-69
2022/03/05 01:52:36;;;;;;;31.63;13.75;;;;;;;-0.98;83.91;100120.44;6348399;28;20047;-69
2022/03/05 01:55:36;;;;;;;32.90;14.07;;;;;;;-0.93;84.10;100118.66;6349675;28;20490;-70
2022/03/05 01:58:37;;;;;;;33.72;14.00;;;;;;;-0.87;83.24;100128.81;6349587;28;20051;-69
2022/03/05 02:01:38;;;;;;;29.70;14.18;;;;;;;-0.93;84.38;100116.09;6349276;28;20399;-70
2022/03/05 02:04:39;;;;;;;33.95;14.00;;;;;;;-1.00;84.51;100122.19;6349410;27;20039;-70
2022/03/05 02:07:40;;;;;;;29.73;13.98;;;;;;;-0.89;83.72;100117.75;6348017;28;20130;-66
2022/03/05 02:10:41;;;;;;;32.67;13.75;;;;;;;-0.89;84.75;100125.44;6349184;28;20040;-69
2022/03/05 02:13:42;;;;;;;32.55;15.18;;;;;;;-0.91;84.51;100121.22;6349237;28;20407;-66
2022/03/05 02:16:44;;;;;;;31.05;13.15;;;;;;;-0.86;83.75;100119.44;6349002;28;20036;-70
2022/03/05 02:19:45;;;;;;;40.85;14.40;;;;;;;-0.69;83.35;100116.66;6330749;28;20044;-66
2022/03/05 02:22:46;;;;;;;29.38;13.48;;;;;;;-0.66;82.66;100117.47;6347558;28;20092;-66
2022/03/05 02:26:02;;;;;;;27.70;12.50;;;;;;;-0.68;82.48;100121.78;6347715;28;20071;-66
2022/03/05 02:29:04;;;;;;;23.52;12.73;;;;;;;-0.69;83.00;100119.22;6347483;28;20078;-66
2022/03/05 02:32:05;;;;;;;28.25;13.05;;;;;;;-0.73;83.04;100127.81;6348521;28;20039;-66
2022/03/05 02:35:06;;;;;;;27.77;13.32;;;;;;;-0.75;82.89;100127.00;6348524;28;20571;-69
2022/03/05 02:38:07;;;;;;;24.80;11.82;;;;;;;-0.67;82.69;100130.28;6348428;28;20475;-67
2022/03/05 02:41:08;;;;;;;31.95;13.15;;;;;;;-0.68;82.89;100120.91;6313450;28;20060;-69
2022/03/05 02:44:10;;;;;;;32.90;12.98;;;;;;;-0.62;82.86;100126.81;6346792;28;20130;-69
2022/03/05 02:47:11;;;;;;;26.57;13.07;;;;;;;-0.56;81.88;100119.88;6348150;28;20043;-69
2022/03/05 02:50:12;;;;;;;32.22;14.32;;;;;;;-0.62;82.98;100125.94;6347881;28;20632;-69
2022/03/05 02:53:13;;;;;;;32.30;12.00;;;;;;;-0.66;83.08;100130.28;6346874;28;20046;-70
2022/03/05 02:56:14;;;;;;;28.45;12.88;;;;;;;-0.60;83.57;100126.75;6347642;28;20073;-69
2022/03/05 02:59:14;;;;;;;35.65;13.43;;;;;;;-0.52;82.53;100140.31;6347858;28;20043;-68
2022/03/05 03:02:16;;;;;;;32.00;13.18;;;;;;;-0.64;83.35;100125.97;6346718;28;20107;-67
2022/03/05 03:05:18;;;;;;;27.77;11.20;;;;;;;-0.65;83.26;100131.13;6348034;28;20050;-67
2022/03/05 03:08:19;;;;;;;26.08;13.43;;;;;;;-0.64;83.75;100133.66;6347765;28;20043;-66
2022/03/05 03:11:20;;;;;;;23.70;11.98;;;;;;;-0.49;82.29;100135.16;6347818;28;20050;-66
2022/03/05 03:14:20;;;;;;;30.45;13.63;;;;;;;-0.45;83.60;100133.41;6346370;28;20036;-70
2022/03/05 03:17:21;;;;;;;28.90;14.63;;;;;;;-0.48;83.84;100141.13;6347574;28;20118;-66
2022/03/05 03:20:25;;;;;;;37.90;12.60;;;;;;;-0.50;83.59;100138.56;6346378;28;20483;-70
2022/03/05 03:23:26;;;;;;;29.30;12.88;;;;;;;-0.47;83.01;100127.47;6347478;28;20055;-69
2022/03/05 03:26:27;;;;;;;29.17;13.50;;;;;;;-0.49;83.51;100135.16;6346365;28;20047;-66
2022/03/05 03:29:28;;;;;;;27.58;12.50;;;;;;;-0.47;83.49;100143.69;6346310;28;20479;-70
2022/03/05 03:32:29;;;;;;;31.25;12.80;;;;;;;-0.48;83.50;100144.53;6346187;28;20471;-66
2022/03/05 03:35:30;;;;;;;28.70;12.70;;;;;;;-0.44;82.56;100142.78;6346023;28;20044;-69
2022/03/05 03:38:31;;;;;;;28.48;12.65;;;;;;;-0.56;83.68;100138.66;6347150;28;20432;-66
2022/03/05 03:41:32;;;;;;;33.42;12.75;;;;;;;-0.59;83.89;100143.84;6345797;28;20416;-66
2022/03/05 03:44:33;;;;;;;29.85;13.30;;;;;;;-0.61;83.79;100140.47;6328820;28;20067;-66
2022/03/05 03:47:34;;;;;;;32.72;12.88;;;;;;;-0.61;84.37;100145.59;6347120;28;20539;-69
2022/03/05 03:50:35;;;;;;;31.40;13.43;;;;;;;-0.75;85.07;100147.50;6345820;28;20527;-69
2022/03/05 03:53:36;;;;;;;31.40;14.13;;;;;;;-0.76;85.19;100146.66;6345690;28;20062;-66
2022/03/05 03:56:37;;;;;;;25.75;12.23;;;;;;;-0.86;86.09;100148.47;6328906;28;20527;-66
2022/03/05 03:59:38;;;;;;;31.05;13.55;;;;;;;-0.82;85.45;100154.41;6345199;28;20043;-66
2022/03/05 04:02:39;;;;;;;31.33;14.38;;;;;;;-0.80;84.78;100155.25;6345638;28;20040;-66
2022/03/05 04:05:40;;;;;;;31.85;13.35;;;;;;;-0.85;85.50;100162.13;6329124;28;20036;-66
2022/03/05 04:08:44;;;;;;;35.53;14.43;;;;;;;-0.96;86.66;100152.00;6347121;28;20055;-66
2022/03/05 04:11:45;;;;;;;29.83;14.02;;;;;;;-1.02;87.34;100158.06;6328658;28;20043;-70
2022/03/05 04:14:45;;;;;;;30.38;13.20;;;;;;;-0.96;87.35;100153.75;6345070;28;20047;-67
2022/03/05 04:17:46;;;;;;;29.10;12.73;;;;;;;-1.03;87.43;100155.50;6328310;28;20058;-66
2022/03/05 04:20:47;;;;;;;29.33;13.20;;;;;;;-1.01;87.86;100158.88;6328542;28;20051;-69
2022/03/05 04:23:48;;;;;;;32.88;14.23;;;;;;;-1.07;88.21;100156.41;6345166;28;20401;-70
2022/03/05 04:26:48;;;;;;;31.65;13.90;;;;;;;-1.12;88.02;100169.28;6346763;28;20395;-66
2022/03/05 04:29:49;;;;;;;37.15;13.80;;;;;;;-1.18;89.50;100168.50;6346658;28;20055;-66
2022/03/05 04:32:50;;;;;;;39.90;14.30;;;;;;;-1.32;90.62;100172.06;6345414;28;20075;-67
2022/03/05 04:35:51;;;;;;;37.78;13.85;;;;;;;-1.28;89.91;100170.31;6345597;28;20460;-66
2022/03/05 04:38:51;;;;;;;31.35;13.63;;;;;;;-1.32;90.12;100172.06;6328461;28;20048;-69
2022/03/05 04:41:52;;;;;;;32.20;13.82;;;;;;;-1.39;91.34;100182.38;6345423;28;20177;-69
2022/03/05 04:44:53;;;;;;;31.75;13.90;;;;;;;-1.37;91.43;100172.97;6346500;28;20047;-70
2022/03/05 04:47:54;;;;;;;31.38;13.68;;;;;;;-1.39;91.35;100169.56;6346368;28;20051;-70
2022/03/05 04:50:55;;;;;;;30.17;13.07;;;;;;;-1.35;91.56;100178.91;6345215;28;20127;-70
2022/03/05 04:53:56;;;;;;;32.15;13.50;;;;;;;-1.35;91.05;100181.47;6345267;28;20047;-69
2022/03/05 04:56:57;;;;;;;31.90;14.63;;;;;;;-1.40;92.22;100181.53;6346050;28;20048;-70
2022/03/05 04:59:58;;;;;;;36.60;15.68;;;;;;;-1.37;92.81;100184.06;6346529;28;20395;-70
2022/03/05 05:02:58;;;;;;;31.73;14.77;;;;;;;-1.35;92.54;100187.44;6346419;28;20122;-69
2022/03/05 05:05:59;;;;;;;31.42;15.20;;;;;;;-1.51;94.54;100184.19;6328129;28;20070;-69
2022/03/05 05:09:01;;;;;;;37.85;16.38;;;;;;;-1.52;94.41;100189.34;6345181;28;20050;-66
2022/03/05 05:12:02;;;;;;;39.92;18.20;;;;;;;-1.42;94.06;100193.50;6347192;27;20070;-68
2022/03/05 05:15:03;;;;;;;39.70;19.92;;;;;;;-1.42;92.74;100194.34;6375244;27;20122;-69
2022/03/05 05:18:05;;;;;;;52.25;23.58;;;;;;;-1.44;93.37;100192.66;6376160;27;20039;-69
2022/03/05 05:21:05;;;;;;;44.60;20.55;;;;;;;-1.49;94.19;100199.53;6376248;27;20043;-70
2022/03/05 05:24:06;;;;;;;34.35;17.00;;;;;;;-1.43;93.49;100197.75;6376192;27;20273;-69
2022/03/05 05:27:07;;;;;;;34.72;15.82;;;;;;;-1.36;92.76;100196.00;6375279;27;20047;-69
2022/03/05 05:30:09;;;;;;;37.53;15.30;;;;;;;-1.43;95.25;100196.91;6374212;27;20052;-69
2022/03/05 05:33:10;;;;;;;34.83;14.95;;;;;;;-1.35;95.00;100207.09;6335731;28;20520;-69
2022/03/05 05:36:12;;;;;;;33.58;15.05;;;;;;;-1.35;95.67;100200.25;6349565;28;20040;-66
2022/03/05 05:39:13;;;;;;;;;;;;;;;-1.31;95.92;100207.03;6349875;28;20040;-67
2022/03/05 05:42:14;;;;;;;32.47;15.02;;;;;;;-1.27;96.46;100210.41;6360200;27;19923;-67
2022/03/05 05:45:15;;;;;;;31.75;14.20;;;;;;;-1.28;96.97;100211.25;6371703;27;20074;-67
2022/03/05 05:48:16;;;;;;;34.22;14.65;;;;;;;-1.35;98.50;100214.75;6348034;28;20050;-66
2022/03/05 05:51:17;;;;;;;38.55;16.55;;;;;;;-1.27;97.99;100218.09;6349249;28;20050;-69
2022/03/05 05:54:18;;;;;;;37.17;16.20;;;;;;;-1.28;97.22;100217.22;6347955;28;20376;-66
2022/03/05 05:57:19;;;;;;;40.45;15.88;;;;;;;-1.33;97.13;100229.25;6347831;28;20036;-67
2022/03/05 06:00:20;;;;;;;40.38;17.55;;;;;;;-1.35;98.99;100230.13;6349427;28;20036;-69
2022/03/05 06:03:21;;;;;;;37.83;16.73;;;;;;;-1.43;100.00;100222.50;6348830;28;20044;-69
2022/03/05 06:06:22;;;;;;;34.03;14.85;;;;;;;-1.27;99.74;100230.91;6356120;27;20122;-66
2022/03/05 06:09:23;;;;;;;37.27;15.60;;;;;;;-1.15;99.62;100230.78;6373205;27;20043;-66
2022/03/05 06:12:24;;;;;;;37.45;15.95;;;;;;;-1.10;100.00;100238.41;6372980;27;20095;-66
2022/03/05 06:15:25;;;;;;;35.85;16.20;;;;;;;-1.10;100.00;100234.13;6374207;27;20035;-69
2022/03/05 06:18:26;;;;;;;39.22;16.83;;;;;;;-0.95;98.58;100239.94;6374007;27;20483;-70
2022/03/05 06:21:27;;;;;;;33.90;15.23;;;;;;;-0.90;97.78;100244.16;6348711;27;20427;-67
2022/03/05 06:24:28;;;;;;;37.65;17.38;;;;;;;-0.81;97.77;100249.16;6346625;28;20140;-66
2022/03/05 06:27:29;;;;;;;34.53;16.88;;;;;;;-0.83;98.33;100256.03;6347285;28;20048;-66
2022/03/05 06:30:30;;;;;;;38.50;16.42;;;;;;;-0.78;98.10;100255.13;6347206;28;20046;-72
2022/03/05 06:33:31;;;;;;;21.20;10.30;;;;;;;-0.75;97.71;100252.53;6355751;27;20040;-69
2022/03/05 06:36:32;;;;;;;37.10;15.50;;;;;;;-0.68;97.85;100254.16;6329874;28;20119;-69
2022/03/05 06:39:33;;;;;;;38.72;17.50;;;;;;;-0.55;96.55;100260.00;6346724;28;20133;-72
2022/03/05 06:42:34;;;;;;;38.17;17.52;;;;;;;-0.54;96.94;100259.13;6346772;28;20447;-70
2022/03/05 06:45:36;;;;;;;36.03;16.73;;;;;;;-0.28;95.59;100263.94;6346704;28;20040;-70
2022/03/05 06:48:36;;;;;;;37.13;17.08;;;;;;;-0.23;94.97;100272.41;6347611;28;20102;-70
2022/03/05 06:51:37;;;;;;;36.75;17.15;;;;;;;-0.12;93.75;100270.56;6347835;28;20487;-67
2022/03/05 06:54:38;;;;;;;22.02;9.90;;;;;;;-0.02;92.04;100273.84;6347658;28;20039;-70
2022/03/05 06:57:39;;;;;;;35.30;13.77;;;;;;;-0.01;92.58;100281.50;6346615;28;20035;-70
2022/03/05 07:00:41;;;;;;;35.08;14.38;;;;;;;0.15;90.34;100283.88;6347565;28;20040;-70
2022/03/05 07:03:42;;;;;;;25.42;12.00;;;;;;;0.39;88.20;100280.06;6346247;28;20074;-70
2022/03/05 07:06:43;;;;;;;36.72;16.33;;;;;;;0.62;86.42;100287.41;6346110;28;20036;-70
2022/03/05 07:09:44;;;;;;;26.30;13.02;;;;;;;0.52;86.43;100284.13;6346141;28;20155;-70
2022/03/05 07:12:44;;;;;;;24.77;11.45;;;;;;;0.53;86.70;100290.13;6347118;28;20503;-70
2022/03/05 07:15:45;;;;;;;29.98;14.55;;;;;;;0.73;86.36;100287.22;6347218;28;20035;-70
2022/03/05 07:18:46;;;;;;;30.58;14.38;;;;;;;0.70;85.48;100290.72;6346925;28;20043;-70
2022/03/05 07:21:47;;;;;;;34.15;15.20;;;;;;;0.80;85.36;100297.38;6346090;28;20130;-68
2022/03/05 07:24:48;;;;;;;30.65;14.10;;;;;;;0.93;84.25;100300.59;6328782;28;20429;-67
2022/03/05 07:27:49;;;;;;;15.90;9.03;;;;;;;0.88;83.42;100299.78;6346855;28;20089;-71
2022/03/05 07:30:51;;;;;;;35.55;15.35;;;;;;;1.05;83.71;100307.22;6337939;27;20122;-71
2022/03/05 07:33:52;;;;;;;37.60;15.20;;;;;;;0.98;83.03;100303.06;6369019;27;20073;-71
2022/03/05 07:36:53;;;;;;;22.63;9.82;;;;;;;1.01;82.88;100310.72;6364223;27;20036;-71
2022/03/05 07:39:54;;;;;;;35.10;17.00;;;;;;;1.27;nan;100306.81;6347151;28;20494;-71
2022/03/05 07:42:55;;;;;;;36.20;15.52;;;;;;;1.40;80.96;100304.00;6329078;28;20048;-71
2022/03/05 07:45:55;;;;;;;44.17;18.05;;;;;;;1.59;79.98;100312.19;6347533;28;20052;-71
2022/03/05 07:48:56;;;;;;;32.38;14.57;;;;;;;1.63;79.46;100305.28;6363448;27;20051;-71
2022/03/05 07:51:57;;;;;;;34.08;13.98;;;;;;;1.71;79.95;100310.25;6370695;27;20039;-71
2022/03/05 07:54:59;;;;;;;33.55;14.73;;;;;;;1.66;78.84;100312.06;6357234;27;20487;-71
2022/03/05 07:57:59;;;;;;;36.00;15.37;;;;;;;1.94;77.65;100309.78;6345136;28;20479;-71
2022/03/05 08:01:00;;;;;;;26.63;13.77;;;;;;;1.88;79.24;100304.78;6345212;28;20283;-71
2022/03/05 08:04:01;;;;;;;30.23;13.82;;;;;;;1.89;76.15;100307.28;6357035;27;20047;-71
2022/03/05 08:07:04;;;;;;;35.25;14.13;;;;;;;2.07;75.44;100305.22;6355987;27;20117;-71
2022/03/05 08:10:07;;;;;;;26.90;13.07;;;;;;;2.31;74.31;100306.41;6337859;27;20035;-71
2022/03/05 08:13:08;;;;;;;25.33;11.73;;;;;;;2.36;71.65;100312.28;6360329;27;20065;-71
2022/03/05 08:16:09;;;;;;;19.52;9.48;;;;;;;2.38;68.54;100313.09;6371715;27;20411;-71
2022/03/05 08:19:10;;;;;;;18.17;8.35;;;;;;;2.30;68.39;100310.69;6345674;28;20123;-71
2022/03/05 08:22:11;;;;;;;22.08;8.95;;;;;;;2.41;67.83;100311.28;6346136;28;20093;-71
2022/03/05 08:25:12;;;;;;;21.48;10.68;;;;;;;2.59;67.51;100315.16;6345923;28;20044;-71
2022/03/05 08:28:13;;;;;;;13.77;7.47;;;;;;;2.44;66.50;100320.66;6344827;28;20051;-71
2022/03/05 08:31:14;;;;;;;24.85;8.63;;;;;;;2.66;65.94;100320.16;6344851;28;20040;-71
2022/03/05 08:34:16;;;;;;;24.02;10.93;;;;;;;2.83;64.85;100318.84;6344942;28;20524;-71
2022/03/05 08:37:17;;;;;;;21.02;8.63;;;;;;;3.01;63.61;100325.28;6351913;28;20078;-71
2022/03/05 08:40:19;;;;;;;20.48;10.85;;;;;;;3.06;64.27;100321.75;6371398;27;20383;-71
2022/03/05 08:43:20;;;;;;;;;;;;;;;3.05;61.96;100318.34;6359793;27;20402;-72
2022/03/05 08:46:21;;;;;;;21.45;10.55;;;;;;;3.32;62.41;100314.19;6347762;28;20014;-72
2022/03/05 08:49:22;;;;;;;25.08;11.10;;;;;;;3.48;59.63;100317.19;6356636;27;20082;-72
2022/03/05 08:52:23;;;;;;;31.20;12.23;;;;;;;3.53;59.10;100319.63;6375007;27;20487;-71
2022/03/05 08:55:24;;;;;;;26.17;11.68;;;;;;;3.42;59.73;100323.34;6376009;27;20436;-71
2022/03/05 08:58:25;;;;;;;22.13;9.40;;;;;;;3.34;59.66;100319.31;6363657;27;20063;-72
2022/03/05 09:01:26;;;;;;;20.33;9.70;;;;;;;3.57;60.22;100324.66;6350371;28;20039;-72
2022/03/05 09:04:27;;;;;;;20.90;8.40;;;;;;;3.75;57.56;100325.06;6348990;28;20135;-72
2022/03/05 09:07:28;;;;;;;15.38;7.20;;;;;;;3.74;54.65;100323.34;6348926;28;20548;-72
2022/03/05 09:10:30;;;;;;;24.20;8.57;;;;;;;3.97;54.79;100318.34;6349057;28;20077;-72
2022/03/05 09:13:31;;;;;;;21.85;9.02;;;;;;;4.30;56.02;100327.72;6350126;28;20036;-72
2022/03/05 09:16:34;;;;;;;17.60;8.40;;;;;;;4.27;53.26;100331.25;6348892;28;20071;-72
2022/03/05 09:19:35;;;;;;;14.18;7.70;;;;;;;4.58;52.23;100325.13;6370703;27;20051;-72
2022/03/05 09:22:36;;;;;;;13.93;7.18;;;;;;;4.62;50.72;100327.56;6374358;27;20105;-68
2022/03/05 09:25:37;;;;;;;16.55;8.35;;;;;;;4.94;50.33;100327.38;6374427;27;20046;-69
2022/03/05 09:28:38;;;;;;;14.38;7.05;;;;;;;4.83;48.98;100330.34;6375395;27;20147;-68
2022/03/05 09:31:48;;;;;;;29.02;9.10;;;;;;;4.92;47.19;100330.06;6375225;27;20067;-68
2022/03/05 09:34:49;;;;;;;18.38;7.35;;;;;;;4.92;47.29;100331.78;6374146;27;20055;-68
2022/03/05 09:37:50;;;;;;;18.38;6.72;;;;;;;4.98;46.42;100332.44;6374986;27;20035;-68
2022/03/05 09:40:51;;;;;;;18.58;8.82;;;;;;;5.05;47.27;100323.56;6390948;27;20502;-69
2022/03/05 09:43:52;;;;;;;19.75;8.52;;;;;;;5.12;46.62;100328.53;6390967;27;20079;-68
2022/03/05 09:46:54;;;;;;;11.90;6.40;;;;;;;5.28;46.20;100318.50;6364808;27;20091;-68
2022/03/05 09:49:55;;;;;;;17.35;7.20;;;;;;;5.36;46.35;100321.66;6364453;27;20134;-68
2022/03/05 09:52:56;;;;;;;19.00;7.75;;;;;;;5.72;46.95;100319.47;6373298;27;20402;-68
2022/03/05 09:55:58;;;;;;;28.13;9.00;;;;;;;5.96;45.50;100319.50;6374303;27;20035;-67
2022/03/05 09:58:58;;;;;;;15.38;6.07;;;;;;;5.69;45.00;100326.53;6373420;27;20044;-68
2022/03/05 10:01:59;;;;;;;12.15;5.95;;;;;;;5.79;45.90;100317.53;6338911;27;20039;-68
2022/03/05 10:05:18;;;;;;;16.35;8.45;;;;;;;6.13;44.49;100317.13;6355846;27;20039;-71
2022/03/05 10:08:20;;;;;;;4.97;3.05;;;;;;;5.90;44.74;100315.38;6374183;27;20096;-72
2022/03/05 10:11:36;;;;;;;12.90;6.25;;;;;;;6.21;45.72;100325.44;6356058;27;20466;-71
2022/03/05 10:14:37;;;;;;;10.20;4.68;;;;;;;5.96;42.94;100328.13;6374386;27;20039;-71
2022/03/05 10:17:50;;;;;;;14.43;6.20;;;;;;;5.92;46.07;100313.56;6373777;27;20475;-71
2022/03/05 10:20:52;;;;;;;25.92;9.02;;;;;;;6.09;44.61;100323.31;6373796;27;20047;-67
2022/03/05 10:24:04;;;;;;;11.30;5.80;;;;;;;6.34;44.61;100317.19;6372605;27;20081;-67
2022/03/05 10:27:10;;;;;;;10.60;4.70;;;;;;;6.21;43.37;100325.44;6373679;27;20043;-68
2022/03/05 10:30:11;;;;;;;8.18;4.22;;;;;;;6.16;43.01;100321.34;6373530;27;20043;-68
2022/03/05 10:33:34;;;;;;;12.80;5.30;;;;;;;6.16;44.77;100326.53;6373454;27;20050;-72
2022/03/05 10:36:35;;;;;;;10.82;3.83;;;;;;;6.10;42.69;100324.19;6373278;27;20042;-72
2022/03/05 10:39:36;;;;;;;9.63;4.75;;;;;;;6.37;43.03;100325.69;6371947;27;20043;-72
2022/03/05 10:42:38;;;;;;;8.57;4.40;;;;;;;6.58;43.17;100321.41;6372075;27;20053;-71
2022/03/05 10:45:53;;;;;;;12.38;5.80;;;;;;;6.71;41.36;100324.31;6373268;27;20087;-72
2022/03/05 10:49:10;;;;;;;11.88;5.30;;;;;;;6.74;41.48;100320.78;6371728;27;20081;-72
2022/03/05 10:52:11;;;;;;;12.88;5.78;;;;;;;6.86;41.30;100322.88;6372982;27;20046;-72
2022/03/05 10:55:29;;;;;;;5.75;3.35;;;;;;;6.44;41.27;100316.78;6372913;27;20039;-71
2022/03/05 10:58:29;;;;;;;7.22;4.20;;;;;;;6.35;42.68;100313.72;6372848;27;20035;-71
2022/03/05 11:01:31;;;;;;;9.88;4.82;;;;;;;6.69;42.00;100307.16;6372695;27;20035;-71
2022/03/05 11:04:35;;;;;;;7.78;4.03;;;;;;;6.68;41.65;100306.31;6354653;27;20057;-71
2022/03/05 11:07:37;;;;;;;12.20;6.10;;;;;;;6.55;41.75;100312.91;6372541;27;20075;-71
2022/03/05 11:10:39;;;;;;;11.07;5.28;;;;;;;6.62;41.56;100304.81;6371352;27;20050;-71
2022/03/05 11:13:40;;;;;;;12.48;4.88;;;;;;;6.45;41.72;100309.84;6372547;27;20046;-71
2022/03/05 11:16:43;;;;;;;8.57;4.10;;;;;;;6.52;39.98;100300.91;6371281;27;20107;-71
2022/03/05 11:19:45;;;;;;;10.40;4.60;;;;;;;7.20;40.42;100301.53;6371496;27;20043;-71
2022/03/05 11:22:49;;;;;;;12.38;5.45;;;;;;;7.56;38.80;100298.25;6371059;27;20491;-67
2022/03/05 11:25:51;;;;;;;14.43;6.28;;;;;;;7.54;38.78;100299.22;6372125;27;20464;-67
2022/03/05 11:28:53;;;;;;;9.93;4.20;;;;;;;7.21;38.22;100290.25;6372138;27;20039;-67
2022/03/05 11:32:11;;;;;;;6.05;3.38;;;;;;;7.30;39.34;100290.75;6372156;27;20046;-66
2022/03/05 11:35:30;;;;;;;9.32;4.35;;;;;;;7.21;39.79;100274.69;6371945;27;20043;-67
2022/03/05 11:38:36;;;;;;;7.43;4.25;;;;;;;6.90;41.22;100287.25;6371895;27;20053;-67
2022/03/05 11:42:01;;;;;;;8.20;4.18;;;;;;;6.83;41.10;100299.66;6371901;27;20066;-67
2022/03/05 11:45:30;;;;;;;6.38;3.70;;;;;;;6.85;40.66;100293.47;6370890;27;20035;-66
2022/03/05 11:48:33;;;;;;;6.93;3.88;;;;;;;6.95;40.52;100295.72;6371733;27;20399;-67
2022/03/05 11:51:50;;;;;;;9.98;3.92;;;;;;;7.07;40.66;100293.44;6371815;27;20047;-66
2022/03/05 11:55:13;;;;;;;9.80;5.00;;;;;;;7.17;40.77;100288.69;6371751;27;20035;-67
2022/03/05 11:58:14;;;;;;;7.05;3.90;;;;;;;7.49;39.26;100290.78;6371480;27;20501;-67
2022/03/05 12:01:50;;;;;;;7.05;3.50;;;;;;;7.15;39.15;100285.31;6370505;28;20047;-71
2022/03/05 12:04:51;;;;;;;6.63;3.50;;;;;;;6.73;40.46;100282.78;6371568;27;20067;-72
2022/03/05 12:07:52;;;;;;;7.60;4.13;;;;;;;6.91;40.03;100281.19;6371504;27;20487;-72
2022/03/05 12:11:14;;;;;;;15.80;4.82;;;;;;;6.70;39.68;100290.72;6353229;28;20376;-72
2022/03/05 12:14:15;;;;;;;12.18;3.72;;;;;;;6.55;40.29;100287.00;6371577;28;20046;-71
2022/03/05 12:17:22;;;;;;;6.07;3.55;;;;;;;6.53;40.55;100294.00;6370134;28;20063;-71
2022/03/05 12:20:27;;;;;;;8.02;3.85;;;;;;;6.59;40.37;100286.81;6371529;27;20039;-69
2022/03/05 12:23:27;;;;;;;6.35;3.65;;;;;;;6.79;40.82;100285.13;6376360;27;20039;-68
2022/03/05 12:26:41;;;;;;;9.43;3.90;;;;;;;6.91;40.69;100284.59;6376522;27;20070;-67
2022/03/05 12:29:52;;;;;;;5.88;3.38;;;;;;;7.17;39.57;100280.06;6376471;27;20479;-68
2022/03/05 12:32:58;;;;;;;8.47;4.53;;;;;;;7.33;38.26;100283.69;6376440;27;20068;-67
2022/03/05 12:36:01;;;;;;;11.25;5.00;;;;;;;7.77;39.25;100285.22;6375322;27;20073;-67
2022/03/05 12:39:02;;;;;;;8.60;4.45;;;;;;;8.16;37.54;100289.47;6376225;27;20045;-67
2022/03/05 12:42:06;;;;;;;6.25;3.35;;;;;;;7.74;36.84;100283.59;6376082;27;20039;-67
2022/03/05 12:45:12;;;;;;;11.05;4.32;;;;;;;7.78;37.78;100287.75;6374183;27;20518;-68
2022/03/05 12:48:20;;;;;;;6.63;3.70;;;;;;;7.86;38.95;100280.44;6357936;27;20499;-67
2022/03/05 12:51:22;;;;;;;10.23;5.10;;;;;;;8.14;36.25;100286.09;6338102;27;20040;-67
2022/03/05 12:54:23;;;;;;;9.80;4.20;;;;;;;7.80;36.11;100278.13;6349385;28;20544;-68
2022/03/05 12:57:25;;;;;;;7.50;4.40;;;;;;;7.34;37.75;100281.94;6350509;27;20035;-67
2022/03/05 13:00:26;;;;;;;8.82;4.65;;;;;;;7.50;37.66;100272.56;6365814;27;20111;-67
2022/03/05 13:03:29;;;;;;;6.95;3.63;;;;;;;7.17;38.29;100277.47;6349221;28;20039;-68
2022/03/05 13:06:30;;;;;;;11.50;4.90;;;;;;;7.55;38.95;100278.38;6350317;27;20047;-68
2022/03/05 13:09:31;;;;;;;11.07;4.53;;;;;;;7.03;38.05;100280.66;6357487;27;20043;-67
2022/03/05 13:12:40;;;;;;;10.07;4.10;;;;;;;6.98;38.02;100282.59;6357577;27;20042;-67
2022/03/05 13:15:42;;;;;;;7.28;3.88;;;;;;;6.60;40.38;100283.28;6374285;27;20043;-67
2022/03/05 13:18:43;;;;;;;11.70;4.15;;;;;;;6.98;39.30;100285.19;6374162;27;20183;-67
2022/03/05 13:21:50;;;;;;;13.30;4.80;;;;;;;7.03;38.44;100278.06;6374464;27;20482;-67
2022/03/05 13:24:51;;;;;;;11.50;5.50;;;;;;;7.10;38.18;100269.09;6358575;27;20031;-67
2022/03/05 13:27:52;;;;;;;12.80;4.80;;;;;;;6.99;39.69;100279.94;6372653;27;20038;-67
2022/03/05 13:31:01;;;;;;;5.68;3.45;;;;;;;6.80;38.28;100271.25;6357100;27;20043;-67
2022/03/05 13:34:04;;;;;;;12.20;4.15;;;;;;;6.67;39.10;100281.28;6374433;27;20140;-67
2022/03/05 13:37:12;;;;;;;8.60;4.05;;;;;;;6.61;38.57;100278.94;6375001;27;20070;-67
2022/03/05 13:40:15;;;;;;;12.82;5.40;;;;;;;6.55;38.68;100284.41;6374985;27;20118;-67
2022/03/05 13:43:23;;;;;;;14.13;6.80;;;;;;;6.60;38.97;100282.44;6375013;27;20062;-67
2022/03/05 13:46:27;;;;;;;7.72;4.05;;;;;;;6.18;38.89;100288.47;6373782;27;20562;-67
2022/03/05 13:49:29;;;;;;;7.28;3.83;;;;;;;6.42;40.05;100277.13;6372005;27;20499;-67
2022/03/05 13:52:31;;;;;;;5.80;3.47;;;;;;;6.46;39.75;100283.00;6374664;27;20121;-67
2022/03/05 13:55:32;;;;;;;8.48;4.18;;;;;;;6.48;39.53;100270.81;6370987;27;20534;-67
2022/03/05 13:58:36;;;;;;;6.85;3.80;;;;;;;6.42;39.14;100284.03;6347739;28;20051;-66